Starlight Hills, California
Current Conditions -  °F | °C
As of 12:53 PM on Monday 22 Dec 2014 (Local Time) from KBUR Reporting Station
Clear Clear  
Wind Chill: 76°   Ceiling: Unl
Heat Index: 76°   Visibility: 10mi
Dew Point: 46°   Wind: 5mph
Humidity: 35%   Direction: 170°S
Pressure: 29.98"   Gusts: NA
Location:  34.204°N, 118.302°W
Report Text: KBUR 222053Z 17004KT 10SM CLR 24/08 A2998 RMK AO2 SLP141 T02440078 58026
Loading
Personal Weather Stations






























Interactive Weather Map New forecast layout! Learn more

10-Day Weather Forecast

Advertisements
Track Severe Weather on mobile